sensor_id;sensor_type;location;lat;lon;timestamp;P1;durP1;ratioP1;P2;durP2;ratioP2
9124;SDS011;4597;48.730;9.114;2024-01-15T00:00:37;12.43;;;4.47;;
9124;SDS011;4597;48.730;9.114;2024-01-15T00:03:03;12.70;;;5.67;;
9124;SDS011;4597;48.730;9.114;2024-01-15T00:05:29;8.70;;;5.07;;
9124;SDS011;4597;48.730;9.114;2024-01-15T00:07:55;11.17;;;5.10;;
9124;SDS011;4597;48.730;9.114;2024-01-15T00:10:20;10.63;;;4.93;;
9124;SDS011;4597;48.730;9.114;2024-01-15T00:12:46;15.13;;;5.33;;
9124;SDS011;4597;48.730;9.114;2024-01-15T00:15:11;15.30;;;6.20;;
9124;SDS011;4597;48.730;9.114;2024-01-15T00:17:37;18.30;;;5.23;;
9124;SDS011;4597;48.730;9.114;2024-01-15T00:20:02;15.80;;;6.17;;
9124;SDS011;4597;48.730;9.114;2024-01-15T00:22:28;9.47;;;5.27;;
9124;SDS011;4597;48.730;9.114;2024-01-15T00:24:54;11.13;;;5.33;;
9124;SDS011;4597;48.730;9.114;2024-01-15T00:27:20;14.70;;;5.20;;
9124;SDS011;4597;48.730;9.114;2024-01-15T00:29:45;17.40;;;6.50;;
9124;SDS011;4597;48.730;9.114;2024-01-15T00:32:11;14.70;;;4.53;;
9124;SDS011;4597;48.730;9.114;2024-01-15T00:34:36;13.40;;;4.97;;
9124;SDS011;4597;48.730;9.114;2024-01-15T00:37:02;17.27;;;5.63;;
9124;SDS011;4597;48.730;9.114;2024-01-15T00:39:27;13.07;;;5.47;;
9124;SDS011;4597;48.730;9.114;2024-01-15T00:41:53;15.00;;;6.17;;
9124;SDS011;4597;48.730;9.114;2024-01-15T00:44:19;13.43;;;5.47;;
9124;SDS011;4597;48.730;9.114;2024-01-15T00:46:44;14.97;;;6.20;;
9124;SDS011;4597;48.730;9.114;2024-01-15T00:49:11;17.50;;;6.87;;
9124;SDS011;4597;48.730;9.114;2024-01-15T00:51:38;15.70;;;6.47;;
9124;SDS011;4597;48.730;9.114;2024-01-15T00:54:03;15.03;;;6.57;;
9124;SDS011;4597;48.730;9.114;2024-01-15T00:56:29;16.50;;;6.40;;
9124;SDS011;4597;48.730;9.114;2024-01-15T00:58:55;14.27;;;6.73;;
9124;SDS011;4597;48.730;9.114;2024-01-15T01:01:20;11.50;;;5.80;;
9124;SDS011;4597;48.730;9.114;2024-01-15T01:03:46;15.07;;;6.17;;
9124;SDS011;4597;48.730;9.114;2024-01-15T01:06:11;14.90;;;6.03;;
9124;SDS011;4597;48.730;9.114;2024-01-15T01:08:36;11.93;;;5.27;;
9124;SDS011;4597;48.730;9.114;2024-01-15T01:11:03;16.63;;;5.53;;
9124;SDS011;4597;48.730;9.114;2024-01-15T01:13:28;15.13;;;5.43;;
9124;SDS011;4597;48.730;9.114;2024-01-15T01:15:54;15.53;;;5.07;;
9124;SDS011;4597;48.730;9.114;2024-01-15T01:18:19;13.97;;;6.40;;
9124;SDS011;4597;48.730;9.114;2024-01-15T01:20:45;8.43;;;5.20;;
9124;SDS011;4597;48.730;9.114;2024-01-15T01:23:10;16.73;;;5.53;;
9124;SDS011;4597;48.730;9.114;2024-01-15T01:25:36;14.37;;;5.80;;
9124;SDS011;4597;48.730;9.114;2024-01-15T01:28:01;13.33;;;5.83;;
9124;SDS011;4597;48.730;9.114;2024-01-15T01:30:27;13.27;;;5.73;;
9124;SDS011;4597;48.730;9.114;2024-01-15T01:32:52;15.93;;;5.77;;
9124;SDS011;4597;48.730;9.114;2024-01-15T01:35:18;16.10;;;5.10;;
9124;SDS011;4597;48.730;9.114;2024-01-15T01:37:43;10.57;;;5.07;;
9124;SDS011;4597;48.730;9.114;2024-01-15T01:40:09;10.90;;;5.53;;
9124;SDS011;4597;48.730;9.114;2024-01-15T01:42:35;14.00;;;5.73;;
9124;SDS011;4597;48.730;9.114;2024-01-15T01:45:00;14.50;;;5.40;;
9124;SDS011;4597;48.730;9.114;2024-01-15T01:47:26;13.60;;;6.03;;
9124;SDS011;4597;48.730;9.114;2024-01-15T01:49:52;13.27;;;6.00;;
9124;SDS011;4597;48.730;9.114;2024-01-15T01:52:18;15.20;;;5.53;;
9124;SDS011;4597;48.730;9.114;2024-01-15T01:54:44;14.27;;;5.87;;
9124;SDS011;4597;48.730;9.114;2024-01-15T01:57:09;10.97;;;4.70;;
9124;SDS011;4597;48.730;9.114;2024-01-15T01:59:37;13.47;;;6.37;;
9124;SDS011;4597;48.730;9.114;2024-01-15T02:02:03;13.27;;;5.60;;
9124;SDS011;4597;48.730;9.114;2024-01-15T02:04:30;10.97;;;5.40;;
9124;SDS011;4597;48.730;9.114;2024-01-15T02:06:56;14.27;;;5.50;;
9124;SDS011;4597;48.730;9.114;2024-01-15T02:09:22;15.63;;;5.93;;
9124;SDS011;4597;48.730;9.114;2024-01-15T02:11:47;10.23;;;4.87;;
9124;SDS011;4597;48.730;9.114;2024-01-15T02:14:13;9.30;;;5.53;;
9124;SDS011;4597;48.730;9.114;2024-01-15T02:16:39;9.87;;;5.17;;
9124;SDS011;4597;48.730;9.114;2024-01-15T02:19:05;11.20;;;4.50;;
9124;SDS011;4597;48.730;9.114;2024-01-15T02:21:31;11.30;;;3.90;;
9124;SDS011;4597;48.730;9.114;2024-01-15T02:23:57;10.50;;;4.60;;
9124;SDS011;4597;48.730;9.114;2024-01-15T02:26:23;11.27;;;5.47;;
9124;SDS011;4597;48.730;9.114;2024-01-15T02:28:48;11.37;;;4.87;;
9124;SDS011;4597;48.730;9.114;2024-01-15T02:31:15;10.67;;;4.63;;
9124;SDS011;4597;48.730;9.114;2024-01-15T02:33:42;12.50;;;5.63;;
9124;SDS011;4597;48.730;9.114;2024-01-15T02:36:07;13.67;;;5.73;;
9124;SDS011;4597;48.730;9.114;2024-01-15T02:38:33;12.37;;;5.70;;
9124;SDS011;4597;48.730;9.114;2024-01-15T02:40:59;11.40;;;5.23;;
9124;SDS011;4597;48.730;9.114;2024-01-15T02:43:24;12.83;;;5.57;;
9124;SDS011;4597;48.730;9.114;2024-01-15T02:45:50;11.07;;;4.93;;
9124;SDS011;4597;48.730;9.114;2024-01-15T02:48:15;12.33;;;5.33;;
9124;SDS011;4597;48.730;9.114;2024-01-15T02:50:41;12.10;;;5.40;;
9124;SDS011;4597;48.730;9.114;2024-01-15T02:53:06;14.77;;;5.40;;
9124;SDS011;4597;48.730;9.114;2024-01-15T02:55:32;11.67;;;5.03;;
9124;SDS011;4597;48.730;9.114;2024-01-15T02:57:57;11.40;;;5.23;;
9124;SDS011;4597;48.730;9.114;2024-01-15T03:00:24;8.70;;;4.20;;
9124;SDS011;4597;48.730;9.114;2024-01-15T03:02:50;12.27;;;4.43;;
9124;SDS011;4597;48.730;9.114;2024-01-15T03:05:16;8.70;;;4.80;;
9124;SDS011;4597;48.730;9.114;2024-01-15T03:07:42;14.20;;;4.50;;
9124;SDS011;4597;48.730;9.114;2024-01-15T03:10:08;11.83;;;4.57;;
9124;SDS011;4597;48.730;9.114;2024-01-15T03:12:33;10.53;;;4.90;;
9124;SDS011;4597;48.730;9.114;2024-01-15T03:14:59;9.43;;;4.77;;
9124;SDS011;4597;48.730;9.114;2024-01-15T03:17:25;11.93;;;5.33;;
9124;SDS011;4597;48.730;9.114;2024-01-15T03:19:50;9.13;;;4.50;;
9124;SDS011;4597;48.730;9.114;2024-01-15T03:22:16;9.77;;;4.60;;
9124;SDS011;4597;48.730;9.114;2024-01-15T03:24:42;10.50;;;3.93;;
9124;SDS011;4597;48.730;9.114;2024-01-15T03:27:08;13.83;;;5.37;;
9124;SDS011;4597;48.730;9.114;2024-01-15T03:29:33;12.33;;;4.77;;
9124;SDS011;4597;48.730;9.114;2024-01-15T03:31:59;11.53;;;4.37;;
9124;SDS011;4597;48.730;9.114;2024-01-15T03:34:24;10.07;;;4.90;;
9124;SDS011;4597;48.730;9.114;2024-01-15T03:36:50;12.70;;;4.90;;
9124;SDS011;4597;48.730;9.114;2024-01-15T03:39:15;14.87;;;5.47;;
9124;SDS011;4597;48.730;9.114;2024-01-15T03:41:41;9.50;;;5.10;;
9124;SDS011;4597;48.730;9.114;2024-01-15T03:44:06;12.20;;;5.63;;
9124;SDS011;4597;48.730;9.114;2024-01-15T03:46:32;9.27;;;4.40;;
9124;SDS011;4597;48.730;9.114;2024-01-15T03:48:57;10.10;;;5.07;;
9124;SDS011;4597;48.730;9.114;2024-01-15T03:51:23;7.00;;;3.83;;
9124;SDS011;4597;48.730;9.114;2024-01-15T03:53:49;5.50;;;3.80;;
9124;SDS011;4597;48.730;9.114;2024-01-15T03:56:15;11.27;;;4.63;;
9124;SDS011;4597;48.730;9.114;2024-01-15T03:58:40;8.47;;;4.10;;
9124;SDS011;4597;48.730;9.114;2024-01-15T04:01:09;13.63;;;5.10;;
9124;SDS011;4597;48.730;9.114;2024-01-15T04:03:35;11.50;;;4.07;;
9124;SDS011;4597;48.730;9.114;2024-01-15T04:06:01;8.50;;;3.80;;
9124;SDS011;4597;48.730;9.114;2024-01-15T04:08:27;8.60;;;4.47;;
9124;SDS011;4597;48.730;9.114;2024-01-15T04:10:53;9.90;;;4.47;;
9124;SDS011;4597;48.730;9.114;2024-01-15T04:13:18;9.27;;;4.27;;
9124;SDS011;4597;48.730;9.114;2024-01-15T04:15:44;9.03;;;3.97;;
9124;SDS011;4597;48.730;9.114;2024-01-15T04:18:09;6.90;;;3.97;;
9124;SDS011;4597;48.730;9.114;2024-01-15T04:20:35;9.10;;;4.67;;
9124;SDS011;4597;48.730;9.114;2024-01-15T04:23:00;6.83;;;4.00;;
9124;SDS011;4597;48.730;9.114;2024-01-15T04:25:26;7.20;;;3.70;;
9124;SDS011;4597;48.730;9.114;2024-01-15T04:27:51;6.30;;;3.97;;
9124;SDS011;4597;48.730;9.114;2024-01-15T04:30:17;8.67;;;3.50;;
9124;SDS011;4597;48.730;9.114;2024-01-15T04:32:42;8.77;;;4.27;;
9124;SDS011;4597;48.730;9.114;2024-01-15T04:35:08;7.47;;;4.07;;
9124;SDS011;4597;48.730;9.114;2024-01-15T04:37:34;8.07;;;4.90;;
9124;SDS011;4597;48.730;9.114;2024-01-15T04:39:59;6.50;;;3.93;;
9124;SDS011;4597;48.730;9.114;2024-01-15T04:42:24;7.50;;;4.40;;
9124;SDS011;4597;48.730;9.114;2024-01-15T04:44:50;8.07;;;4.03;;
9124;SDS011;4597;48.730;9.114;2024-01-15T04:47:16;11.63;;;4.57;;
9124;SDS011;4597;48.730;9.114;2024-01-15T04:49:41;8.90;;;4.13;;
9124;SDS011;4597;48.730;9.114;2024-01-15T04:52:07;9.57;;;4.03;;
9124;SDS011;4597;48.730;9.114;2024-01-15T04:54:35;11.77;;;4.60;;
9124;SDS011;4597;48.730;9.114;2024-01-15T04:57:00;6.10;;;3.47;;
9124;SDS011;4597;48.730;9.114;2024-01-15T04:59:27;6.17;;;3.23;;
9124;SDS011;4597;48.730;9.114;2024-01-15T05:01:53;6.17;;;3.20;;
9124;SDS011;4597;48.730;9.114;2024-01-15T05:04:18;9.20;;;3.63;;
9124;SDS011;4597;48.730;9.114;2024-01-15T05:06:44;8.67;;;3.57;;
9124;SDS011;4597;48.730;9.114;2024-01-15T05:09:09;6.20;;;3.63;;
9124;SDS011;4597;48.730;9.114;2024-01-15T05:11:35;7.77;;;3.40;;
9124;SDS011;4597;48.730;9.114;2024-01-15T05:14:00;6.27;;;3.53;;
9124;SDS011;4597;48.730;9.114;2024-01-15T05:16:26;5.87;;;2.70;;
9124;SDS011;4597;48.730;9.114;2024-01-15T05:18:51;6.37;;;3.60;;
9124;SDS011;4597;48.730;9.114;2024-01-15T05:21:17;6.63;;;3.47;;
9124;SDS011;4597;48.730;9.114;2024-01-15T05:23:42;8.37;;;3.33;;
9124;SDS011;4597;48.730;9.114;2024-01-15T05:26:07;4.47;;;2.90;;
9124;SDS011;4597;48.730;9.114;2024-01-15T05:28:34;6.40;;;2.90;;
9124;SDS011;4597;48.730;9.114;2024-01-15T05:31:00;3.37;;;2.33;;
9124;SDS011;4597;48.730;9.114;2024-01-15T05:33:26;7.47;;;3.20;;
9124;SDS011;4597;48.730;9.114;2024-01-15T05:35:51;4.40;;;3.10;;
9124;SDS011;4597;48.730;9.114;2024-01-15T05:38:18;5.50;;;2.40;;
9124;SDS011;4597;48.730;9.114;2024-01-15T05:40:43;5.13;;;2.93;;
9124;SDS011;4597;48.730;9.114;2024-01-15T05:43:09;6.17;;;3.57;;
9124;SDS011;4597;48.730;9.114;2024-01-15T05:45:35;5.03;;;3.27;;
9124;SDS011;4597;48.730;9.114;2024-01-15T05:48:01;5.17;;;2.73;;
9124;SDS011;4597;48.730;9.114;2024-01-15T05:50:26;6.27;;;3.43;;
9124;SDS011;4597;48.730;9.114;2024-01-15T05:52:52;4.37;;;3.27;;
9124;SDS011;4597;48.730;9.114;2024-01-15T05:55:18;5.03;;;2.77;;
9124;SDS011;4597;48.730;9.114;2024-01-15T05:57:43;6.20;;;2.63;;
9124;SDS011;4597;48.730;9.114;2024-01-15T06:00:09;4.57;;;3.03;;
9124;SDS011;4597;48.730;9.114;2024-01-15T06:02:37;5.00;;;2.53;;
9124;SDS011;4597;48.730;9.114;2024-01-15T06:05:03;4.43;;;2.67;;
9124;SDS011;4597;48.730;9.114;2024-01-15T06:07:29;4.87;;;2.70;;
9124;SDS011;4597;48.730;9.114;2024-01-15T06:09:54;3.70;;;2.73;;
9124;SDS011;4597;48.730;9.114;2024-01-15T06:12:22;7.20;;;3.60;;
9124;SDS011;4597;48.730;9.114;2024-01-15T06:14:47;4.20;;;2.97;;
9124;SDS011;4597;48.730;9.114;2024-01-15T06:17:13;5.00;;;3.07;;
9124;SDS011;4597;48.730;9.114;2024-01-15T06:19:38;3.10;;;2.57;;
9124;SDS011;4597;48.730;9.114;2024-01-15T06:22:04;3.77;;;2.83;;
9124;SDS011;4597;48.730;9.114;2024-01-15T06:24:29;4.77;;;3.27;;
9124;SDS011;4597;48.730;9.114;2024-01-15T06:26:55;5.37;;;3.53;;
9124;SDS011;4597;48.730;9.114;2024-01-15T06:29:20;6.47;;;3.30;;
9124;SDS011;4597;48.730;9.114;2024-01-15T06:31:46;5.40;;;3.50;;
9124;SDS011;4597;48.730;9.114;2024-01-15T06:34:12;5.07;;;3.30;;
9124;SDS011;4597;48.730;9.114;2024-01-15T06:36:37;7.93;;;3.37;;
9124;SDS011;4597;48.730;9.114;2024-01-15T06:39:03;4.17;;;3.33;;
9124;SDS011;4597;48.730;9.114;2024-01-15T06:41:29;6.80;;;2.93;;
9124;SDS011;4597;48.730;9.114;2024-01-15T06:43:54;5.30;;;3.07;;
9124;SDS011;4597;48.730;9.114;2024-01-15T06:46:21;8.37;;;3.37;;
9124;SDS011;4597;48.730;9.114;2024-01-15T06:48:47;4.83;;;3.33;;
9124;SDS011;4597;48.730;9.114;2024-01-15T06:51:13;5.63;;;3.10;;
9124;SDS011;4597;48.730;9.114;2024-01-15T06:53:40;5.87;;;3.13;;
9124;SDS011;4597;48.730;9.114;2024-01-15T06:56:06;6.87;;;3.83;;
9124;SDS011;4597;48.730;9.114;2024-01-15T06:58:31;7.13;;;3.33;;
9124;SDS011;4597;48.730;9.114;2024-01-15T07:00:57;6.43;;;3.20;;
9124;SDS011;4597;48.730;9.114;2024-01-15T07:03:22;8.03;;;3.20;;
9124;SDS011;4597;48.730;9.114;2024-01-15T07:05:48;8.73;;;3.80;;
9124;SDS011;4597;48.730;9.114;2024-01-15T07:08:14;7.57;;;4.03;;
9124;SDS011;4597;48.730;9.114;2024-01-15T07:10:39;7.13;;;3.80;;
9124;SDS011;4597;48.730;9.114;2024-01-15T07:13:05;6.80;;;3.50;;
9124;SDS011;4597;48.730;9.114;2024-01-15T07:15:31;5.03;;;3.30;;
9124;SDS011;4597;48.730;9.114;2024-01-15T07:17:56;9.37;;;6.20;;
9124;SDS011;4597;48.730;9.114;2024-01-15T07:20:22;8.93;;;5.33;;
9124;SDS011;4597;48.730;9.114;2024-01-15T07:22:47;11.13;;;6.20;;
9124;SDS011;4597;48.730;9.114;2024-01-15T07:25:13;8.63;;;5.73;;
9124;SDS011;4597;48.730;9.114;2024-01-15T07:27:38;6.93;;;4.37;;
9124;SDS011;4597;48.730;9.114;2024-01-15T07:30:04;9.50;;;6.70;;
9124;SDS011;4597;48.730;9.114;2024-01-15T07:32:31;15.13;;;8.27;;
9124;SDS011;4597;48.730;9.114;2024-01-15T07:34:57;11.80;;;7.43;;
9124;SDS011;4597;48.730;9.114;2024-01-15T07:37:24;10.80;;;4.90;;
9124;SDS011;4597;48.730;9.114;2024-01-15T07:39:50;6.67;;;3.57;;
9124;SDS011;4597;48.730;9.114;2024-01-15T07:42:15;5.10;;;3.53;;
9124;SDS011;4597;48.730;9.114;2024-01-15T07:44:41;5.07;;;3.00;;
9124;SDS011;4597;48.730;9.114;2024-01-15T07:47:06;6.47;;;3.67;;
9124;SDS011;4597;48.730;9.114;2024-01-15T07:49:33;5.87;;;3.50;;
9124;SDS011;4597;48.730;9.114;2024-01-15T07:51:59;4.37;;;3.00;;
9124;SDS011;4597;48.730;9.114;2024-01-15T07:54:25;5.97;;;3.53;;
9124;SDS011;4597;48.730;9.114;2024-01-15T07:59:23;4.07;;;2.83;;
9124;SDS011;4597;48.730;9.114;2024-01-15T08:01:48;8.03;;;2.97;;
9124;SDS011;4597;48.730;9.114;2024-01-15T08:04:14;4.17;;;2.73;;
9124;SDS011;4597;48.730;9.114;2024-01-15T08:06:40;3.97;;;2.60;;
9124;SDS011;4597;48.730;9.114;2024-01-15T08:09:05;4.07;;;2.70;;
9124;SDS011;4597;48.730;9.114;2024-01-15T08:11:31;4.53;;;2.83;;
9124;SDS011;4597;48.730;9.114;2024-01-15T08:13:56;5.33;;;3.17;;
9124;SDS011;4597;48.730;9.114;2024-01-15T08:16:22;4.53;;;2.40;;
9124;SDS011;4597;48.730;9.114;2024-01-15T08:18:49;6.13;;;3.00;;
9124;SDS011;4597;48.730;9.114;2024-01-15T08:21:15;3.47;;;2.90;;
9124;SDS011;4597;48.730;9.114;2024-01-15T08:23:40;7.33;;;3.07;;
9124;SDS011;4597;48.730;9.114;2024-01-15T08:26:06;3.97;;;2.77;;
9124;SDS011;4597;48.730;9.114;2024-01-15T08:28:32;4.63;;;3.07;;
9124;SDS011;4597;48.730;9.114;2024-01-15T08:30:57;4.90;;;3.00;;
9124;SDS011;4597;48.730;9.114;2024-01-15T08:33:23;5.27;;;2.90;;
9124;SDS011;4597;48.730;9.114;2024-01-15T08:35:48;5.70;;;3.03;;
9124;SDS011;4597;48.730;9.114;2024-01-15T08:38:14;6.10;;;2.70;;
9124;SDS011;4597;48.730;9.114;2024-01-15T08:40:39;4.43;;;2.70;;
9124;SDS011;4597;48.730;9.114;2024-01-15T08:43:05;5.50;;;3.10;;
9124;SDS011;4597;48.730;9.114;2024-01-15T08:45:31;3.13;;;2.67;;
9124;SDS011;4597;48.730;9.114;2024-01-15T08:47:57;3.97;;;2.77;;
9124;SDS011;4597;48.730;9.114;2024-01-15T08:50:23;3.80;;;2.23;;
9124;SDS011;4597;48.730;9.114;2024-01-15T08:52:48;2.77;;;2.27;;
9124;SDS011;4597;48.730;9.114;2024-01-15T08:55:14;5.63;;;2.33;;
9124;SDS011;4597;48.730;9.114;2024-01-15T08:57:39;4.27;;;2.10;;
9124;SDS011;4597;48.730;9.114;2024-01-15T09:00:05;3.83;;;2.47;;
9124;SDS011;4597;48.730;9.114;2024-01-15T09:02:33;3.67;;;2.07;;
9124;SDS011;4597;48.730;9.114;2024-01-15T09:05:00;4.60;;;2.57;;
9124;SDS011;4597;48.730;9.114;2024-01-15T09:07:25;3.23;;;2.23;;
9124;SDS011;4597;48.730;9.114;2024-01-15T09:09:51;3.83;;;2.70;;
9124;SDS011;4597;48.730;9.114;2024-01-15T09:12:17;8.33;;;2.70;;
9124;SDS011;4597;48.730;9.114;2024-01-15T09:14:45;2.97;;;2.63;;
9124;SDS011;4597;48.730;9.114;2024-01-15T09:17:11;3.20;;;2.33;;
9124;SDS011;4597;48.730;9.114;2024-01-15T09:19:37;2.73;;;2.50;;
9124;SDS011;4597;48.730;9.114;2024-01-15T09:22:04;3.30;;;2.30;;
9124;SDS011;4597;48.730;9.114;2024-01-15T09:24:30;5.80;;;2.83;;
9124;SDS011;4597;48.730;9.114;2024-01-15T09:26:56;5.97;;;2.80;;
9124;SDS011;4597;48.730;9.114;2024-01-15T09:29:21;2.77;;;2.50;;
9124;SDS011;4597;48.730;9.114;2024-01-15T09:31:48;3.07;;;2.50;;
9124;SDS011;4597;48.730;9.114;2024-01-15T09:34:15;4.50;;;2.47;;
9124;SDS011;4597;48.730;9.114;2024-01-15T09:36:41;4.70;;;3.00;;
9124;SDS011;4597;48.730;9.114;2024-01-15T09:39:07;3.37;;;2.23;;
9124;SDS011;4597;48.730;9.114;2024-01-15T09:41:34;3.60;;;2.47;;
9124;SDS011;4597;48.730;9.114;2024-01-15T09:44:01;3.33;;;2.73;;
9124;SDS011;4597;48.730;9.114;2024-01-15T09:46:28;3.67;;;2.70;;
9124;SDS011;4597;48.730;9.114;2024-01-15T09:48:53;4.53;;;2.60;;
9124;SDS011;4597;48.730;9.114;2024-01-15T09:51:19;3.57;;;2.40;;
9124;SDS011;4597;48.730;9.114;2024-01-15T09:53:46;4.60;;;2.83;;
9124;SDS011;4597;48.730;9.114;2024-01-15T09:56:12;3.67;;;2.60;;
9124;SDS011;4597;48.730;9.114;2024-01-15T09:58:38;3.00;;;1.97;;
9124;SDS011;4597;48.730;9.114;2024-01-15T10:01:04;4.63;;;2.33;;
9124;SDS011;4597;48.730;9.114;2024-01-15T10:03:30;2.50;;;2.00;;
9124;SDS011;4597;48.730;9.114;2024-01-15T10:05:57;2.63;;;2.30;;
9124;SDS011;4597;48.730;9.114;2024-01-15T10:08:24;2.13;;;1.93;;
9124;SDS011;4597;48.730;9.114;2024-01-15T10:10:50;5.13;;;2.30;;
9124;SDS011;4597;48.730;9.114;2024-01-15T10:13:16;2.93;;;2.03;;
9124;SDS011;4597;48.730;9.114;2024-01-15T10:15:45;2.73;;;1.90;;
9124;SDS011;4597;48.730;9.114;2024-01-15T10:18:12;2.27;;;1.97;;
9124;SDS011;4597;48.730;9.114;2024-01-15T10:20:37;3.80;;;1.83;;
9124;SDS011;4597;48.730;9.114;2024-01-15T10:23:04;2.73;;;2.00;;
9124;SDS011;4597;48.730;9.114;2024-01-15T10:25:30;3.23;;;2.00;;
9124;SDS011;4597;48.730;9.114;2024-01-15T10:27:59;1.83;;;1.73;;
9124;SDS011;4597;48.730;9.114;2024-01-15T10:30:29;1.80;;;1.50;;
9124;SDS011;4597;48.730;9.114;2024-01-15T10:32:58;2.40;;;1.60;;
9124;SDS011;4597;48.730;9.114;2024-01-15T10:35:32;4.90;;;1.87;;
9124;SDS011;4597;48.730;9.114;2024-01-15T10:38:02;2.33;;;2.10;;
9124;SDS011;4597;48.730;9.114;2024-01-15T10:40:28;2.80;;;2.23;;
9124;SDS011;4597;48.730;9.114;2024-01-15T10:42:54;4.90;;;2.13;;
9124;SDS011;4597;48.730;9.114;2024-01-15T10:45:19;2.27;;;1.43;;
9124;SDS011;4597;48.730;9.114;2024-01-15T10:47:45;3.60;;;1.90;;
9124;SDS011;4597;48.730;9.114;2024-01-15T10:50:11;2.03;;;1.77;;
9124;SDS011;4597;48.730;9.114;2024-01-15T10:52:37;2.57;;;2.07;;
9124;SDS011;4597;48.730;9.114;2024-01-15T10:55:08;3.70;;;2.20;;
9124;SDS011;4597;48.730;9.114;2024-01-15T10:57:34;4.40;;;2.70;;
9124;SDS011;4597;48.730;9.114;2024-01-15T11:00:06;3.30;;;2.40;;
9124;SDS011;4597;48.730;9.114;2024-01-15T11:02:35;3.40;;;2.57;;
9124;SDS011;4597;48.730;9.114;2024-01-15T11:05:02;2.63;;;1.70;;
9124;SDS011;4597;48.730;9.114;2024-01-15T11:07:29;4.37;;;2.43;;
9124;SDS011;4597;48.730;9.114;2024-01-15T11:09:55;2.87;;;2.33;;
9124;SDS011;4597;48.730;9.114;2024-01-15T11:12:23;2.77;;;2.20;;
9124;SDS011;4597;48.730;9.114;2024-01-15T11:14:49;2.43;;;2.13;;
9124;SDS011;4597;48.730;9.114;2024-01-15T11:17:15;2.13;;;1.90;;
9124;SDS011;4597;48.730;9.114;2024-01-15T11:19:43;4.37;;;2.30;;
9124;SDS011;4597;48.730;9.114;2024-01-15T11:24:54;4.00;;;2.63;;
9124;SDS011;4597;48.730;9.114;2024-01-15T11:30:09;5.13;;;2.97;;
9124;SDS011;4597;48.730;9.114;2024-01-15T11:32:35;2.50;;;2.30;;
9124;SDS011;4597;48.730;9.114;2024-01-15T11:35:01;2.33;;;2.10;;
9124;SDS011;4597;48.730;9.114;2024-01-15T11:37:29;2.20;;;2.10;;
9124;SDS011;4597;48.730;9.114;2024-01-15T11:40:17;2.67;;;2.17;;
9124;SDS011;4597;48.730;9.114;2024-01-15T11:42:44;2.00;;;1.80;;
9124;SDS011;4597;48.730;9.114;2024-01-15T11:45:11;2.23;;;2.13;;
9124;SDS011;4597;48.730;9.114;2024-01-15T11:48:22;3.90;;;2.50;;
9124;SDS011;4597;48.730;9.114;2024-01-15T11:50:48;7.07;;;4.10;;
9124;SDS011;4597;48.730;9.114;2024-01-15T11:56:06;3.87;;;2.60;;
9124;SDS011;4597;48.730;9.114;2024-01-15T11:58:43;2.97;;;2.67;;
9124;SDS011;4597;48.730;9.114;2024-01-15T12:01:12;3.77;;;2.30;;
9124;SDS011;4597;48.730;9.114;2024-01-15T12:03:38;5.23;;;1.90;;
9124;SDS011;4597;48.730;9.114;2024-01-15T12:06:07;1.70;;;1.60;;
9124;SDS011;4597;48.730;9.114;2024-01-15T12:08:35;2.67;;;2.47;;
9124;SDS011;4597;48.730;9.114;2024-01-15T12:11:00;2.00;;;1.90;;
9124;SDS011;4597;48.730;9.114;2024-01-15T12:13:35;2.00;;;1.80;;
9124;SDS011;4597;48.730;9.114;2024-01-15T12:16:01;2.00;;;1.90;;
9124;SDS011;4597;48.730;9.114;2024-01-15T12:18:29;2.27;;;2.00;;
9124;SDS011;4597;48.730;9.114;2024-01-15T12:20:54;2.17;;;2.07;;
9124;SDS011;4597;48.730;9.114;2024-01-15T12:23:20;3.57;;;2.00;;
9124;SDS011;4597;48.730;9.114;2024-01-15T12:25:45;2.33;;;2.13;;
9124;SDS011;4597;48.730;9.114;2024-01-15T12:28:11;2.37;;;2.17;;
9124;SDS011;4597;48.730;9.114;2024-01-15T12:30:37;2.10;;;1.87;;
9124;SDS011;4597;48.730;9.114;2024-01-15T12:33:04;4.03;;;2.23;;
9124;SDS011;4597;48.730;9.114;2024-01-15T12:35:30;2.53;;;2.33;;
9124;SDS011;4597;48.730;9.114;2024-01-15T12:37:56;5.90;;;2.97;;
9124;SDS011;4597;48.730;9.114;2024-01-15T12:40:22;5.43;;;4.10;;
9124;SDS011;4597;48.730;9.114;2024-01-15T12:42:48;6.87;;;3.90;;
9124;SDS011;4597;48.730;9.114;2024-01-15T12:45:14;4.13;;;2.70;;
9124;SDS011;4597;48.730;9.114;2024-01-15T12:47:40;4.67;;;3.27;;
9124;SDS011;4597;48.730;9.114;2024-01-15T12:50:07;3.23;;;2.77;;
9124;SDS011;4597;48.730;9.114;2024-01-15T12:52:37;1.70;;;1.60;;
9124;SDS011;4597;48.730;9.114;2024-01-15T12:55:06;3.20;;;2.43;;
9124;SDS011;4597;48.730;9.114;2024-01-15T12:57:33;3.87;;;2.10;;
9124;SDS011;4597;48.730;9.114;2024-01-15T12:59:59;2.93;;;2.40;;
9124;SDS011;4597;48.730;9.114;2024-01-15T13:02:25;3.63;;;2.77;;
9124;SDS011;4597;48.730;9.114;2024-01-15T13:04:50;5.67;;;3.93;;
9124;SDS011;4597;48.730;9.114;2024-01-15T13:07:16;2.17;;;1.87;;
9124;SDS011;4597;48.730;9.114;2024-01-15T13:09:42;2.97;;;2.60;;
9124;SDS011;4597;48.730;9.114;2024-01-15T13:12:08;3.20;;;1.80;;
9124;SDS011;4597;48.730;9.114;2024-01-15T13:14:33;3.77;;;2.33;;
9124;SDS011;4597;48.730;9.114;2024-01-15T13:16:59;3.67;;;2.60;;
9124;SDS011;4597;48.730;9.114;2024-01-15T13:19:24;4.40;;;2.40;;
9124;SDS011;4597;48.730;9.114;2024-01-15T13:21:50;3.30;;;2.30;;
9124;SDS011;4597;48.730;9.114;2024-01-15T13:24:16;7.43;;;2.20;;
9124;SDS011;4597;48.730;9.114;2024-01-15T13:26:42;3.80;;;2.60;;
9124;SDS011;4597;48.730;9.114;2024-01-15T13:29:08;3.60;;;2.33;;
9124;SDS011;4597;48.730;9.114;2024-01-15T13:31:33;2.90;;;2.60;;
9124;SDS011;4597;48.730;9.114;2024-01-15T13:33:59;2.83;;;2.33;;
9124;SDS011;4597;48.730;9.114;2024-01-15T13:36:25;3.97;;;3.03;;
9124;SDS011;4597;48.730;9.114;2024-01-15T13:38:51;4.80;;;2.97;;
9124;SDS011;4597;48.730;9.114;2024-01-15T13:41:18;2.70;;;2.50;;
9124;SDS011;4597;48.730;9.114;2024-01-15T13:43:45;6.80;;;2.93;;
9124;SDS011;4597;48.730;9.114;2024-01-15T13:46:12;3.40;;;2.27;;
9124;SDS011;4597;48.730;9.114;2024-01-15T13:48:38;3.90;;;3.10;;
9124;SDS011;4597;48.730;9.114;2024-01-15T13:51:03;5.60;;;2.40;;
9124;SDS011;4597;48.730;9.114;2024-01-15T13:53:29;3.27;;;2.90;;
9124;SDS011;4597;48.730;9.114;2024-01-15T13:55:54;7.67;;;2.53;;
9124;SDS011;4597;48.730;9.114;2024-01-15T13:58:20;6.93;;;3.23;;
9124;SDS011;4597;48.730;9.114;2024-01-15T14:00:46;3.87;;;3.00;;
9124;SDS011;4597;48.730;9.114;2024-01-15T14:03:12;2.60;;;2.37;;
9124;SDS011;4597;48.730;9.114;2024-01-15T14:05:37;4.10;;;2.77;;
9124;SDS011;4597;48.730;9.114;2024-01-15T14:08:03;7.47;;;3.47;;
9124;SDS011;4597;48.730;9.114;2024-01-15T14:10:29;5.70;;;2.83;;
9124;SDS011;4597;48.730;9.114;2024-01-15T14:12:55;5.03;;;2.80;;
9124;SDS011;4597;48.730;9.114;2024-01-15T14:15:20;3.70;;;3.07;;
9124;SDS011;4597;48.730;9.114;2024-01-15T14:17:46;7.47;;;3.03;;
9124;SDS011;4597;48.730;9.114;2024-01-15T14:20:12;5.10;;;3.37;;
9124;SDS011;4597;48.730;9.114;2024-01-15T14:22:38;4.77;;;3.33;;
9124;SDS011;4597;48.730;9.114;2024-01-15T14:25:03;3.93;;;3.43;;
9124;SDS011;4597;48.730;9.114;2024-01-15T14:27:29;6.83;;;3.70;;
9124;SDS011;4597;48.730;9.114;2024-01-15T14:29:55;5.20;;;3.83;;
9124;SDS011;4597;48.730;9.114;2024-01-15T14:32:20;11.93;;;4.53;;
9124;SDS011;4597;48.730;9.114;2024-01-15T14:34:46;4.87;;;3.80;;
9124;SDS011;4597;48.730;9.114;2024-01-15T14:37:12;5.83;;;3.60;;
9124;SDS011;4597;48.730;9.114;2024-01-15T14:39:37;6.90;;;3.70;;
9124;SDS011;4597;48.730;9.114;2024-01-15T14:42:03;5.97;;;4.00;;
9124;SDS011;4597;48.730;9.114;2024-01-15T14:44:28;5.80;;;3.10;;
9124;SDS011;4597;48.730;9.114;2024-01-15T14:46:54;6.37;;;3.53;;
9124;SDS011;4597;48.730;9.114;2024-01-15T14:49:20;4.60;;;3.77;;
9124;SDS011;4597;48.730;9.114;2024-01-15T14:51:46;4.03;;;3.23;;
9124;SDS011;4597;48.730;9.114;2024-01-15T14:54:12;7.80;;;3.70;;
9124;SDS011;4597;48.730;9.114;2024-01-15T14:56:37;3.57;;;3.23;;
9124;SDS011;4597;48.730;9.114;2024-01-15T14:59:03;4.27;;;3.00;;
9124;SDS011;4597;48.730;9.114;2024-01-15T15:01:28;6.33;;;3.73;;
9124;SDS011;4597;48.730;9.114;2024-01-15T15:03:54;5.57;;;3.97;;
9124;SDS011;4597;48.730;9.114;2024-01-15T15:06:20;6.40;;;3.43;;
9124;SDS011;4597;48.730;9.114;2024-01-15T15:08:46;5.57;;;4.13;;
9124;SDS011;4597;48.730;9.114;2024-01-15T15:11:11;4.30;;;3.63;;
9124;SDS011;4597;48.730;9.114;2024-01-15T15:13:37;7.03;;;3.83;;
9124;SDS011;4597;48.730;9.114;2024-01-15T15:16:02;6.83;;;4.50;;